sensor_id;sensor_type;location;lat;lon;timestamp;P1;durP1;ratioP1;P2;durP2;ratioP2
69627;SDS011;56850;51.984;5.088;2022-08-25T00:04:21;9.82;;;5.03;;
69627;SDS011;56850;51.984;5.088;2022-08-25T00:06:48;8.25;;;5.32;;
69627;SDS011;56850;51.984;5.088;2022-08-25T00:09:17;7.32;;;5.70;;
69627;SDS011;56850;51.984;5.088;2022-08-25T00:11:46;6.63;;;5.68;;
69627;SDS011;56850;51.984;5.088;2022-08-25T00:14:16;6.60;;;5.40;;
69627;SDS011;56850;51.984;5.088;2022-08-25T00:16:48;9.95;;;5.72;;
69627;SDS011;56850;51.984;5.088;2022-08-25T00:19:17;5.47;;;4.88;;
69627;SDS011;56850;51.984;5.088;2022-08-25T00:21:48;7.60;;;4.90;;
69627;SDS011;56850;51.984;5.088;2022-08-25T00:24:15;8.13;;;5.45;;
69627;SDS011;56850;51.984;5.088;2022-08-25T00:26:45;5.93;;;5.30;;
69627;SDS011;56850;51.984;5.088;2022-08-25T00:29:14;6.95;;;5.00;;
69627;SDS011;56850;51.984;5.088;2022-08-25T00:31:42;6.13;;;5.40;;
69627;SDS011;56850;51.984;5.088;2022-08-25T00:34:11;7.82;;;4.68;;
69627;SDS011;56850;51.984;5.088;2022-08-25T00:36:41;7.43;;;5.07;;
69627;SDS011;56850;51.984;5.088;2022-08-25T00:39:09;6.07;;;5.50;;
69627;SDS011;56850;51.984;5.088;2022-08-25T00:41:37;7.68;;;5.18;;
69627;SDS011;56850;51.984;5.088;2022-08-25T00:44:07;5.38;;;4.82;;
69627;SDS011;56850;51.984;5.088;2022-08-25T00:46:38;9.43;;;5.35;;
69627;SDS011;56850;51.984;5.088;2022-08-25T00:49:12;6.95;;;4.93;;
69627;SDS011;56850;51.984;5.088;2022-08-25T00:51:52;7.22;;;4.95;;
69627;SDS011;56850;51.984;5.088;2022-08-25T00:54:26;5.97;;;5.05;;
69627;SDS011;56850;51.984;5.088;2022-08-25T00:56:56;6.47;;;5.30;;
69627;SDS011;56850;51.984;5.088;2022-08-25T00:59:24;6.80;;;5.65;;
69627;SDS011;56850;51.984;5.088;2022-08-25T01:01:52;8.68;;;5.55;;
69627;SDS011;56850;51.984;5.088;2022-08-25T01:04:20;6.82;;;5.47;;
69627;SDS011;56850;51.984;5.088;2022-08-25T01:06:47;5.95;;;4.97;;
69627;SDS011;56850;51.984;5.088;2022-08-25T01:09:14;6.90;;;5.10;;
69627;SDS011;56850;51.984;5.088;2022-08-25T01:11:43;6.07;;;5.47;;
69627;SDS011;56850;51.984;5.088;2022-08-25T01:14:12;7.68;;;5.30;;
69627;SDS011;56850;51.984;5.088;2022-08-25T01:16:42;6.15;;;5.55;;
69627;SDS011;56850;51.984;5.088;2022-08-25T01:19:09;9.00;;;5.32;;
69627;SDS011;56850;51.984;5.088;2022-08-25T01:21:42;7.47;;;5.38;;
69627;SDS011;56850;51.984;5.088;2022-08-25T01:24:13;8.23;;;5.35;;
69627;SDS011;56850;51.984;5.088;2022-08-25T01:26:54;7.55;;;5.22;;
69627;SDS011;56850;51.984;5.088;2022-08-25T01:29:21;10.43;;;5.30;;
69627;SDS011;56850;51.984;5.088;2022-08-25T01:31:52;7.43;;;5.07;;
69627;SDS011;56850;51.984;5.088;2022-08-25T01:34:27;10.27;;;5.00;;
69627;SDS011;56850;51.984;5.088;2022-08-25T01:36:56;8.35;;;5.45;;
69627;SDS011;56850;51.984;5.088;2022-08-25T01:39:25;6.43;;;5.05;;
69627;SDS011;56850;51.984;5.088;2022-08-25T01:44:29;7.45;;;5.10;;
69627;SDS011;56850;51.984;5.088;2022-08-25T01:46:58;7.90;;;5.10;;
69627;SDS011;56850;51.984;5.088;2022-08-25T01:49:24;5.90;;;5.15;;
69627;SDS011;56850;51.984;5.088;2022-08-25T01:51:55;6.47;;;5.63;;
69627;SDS011;56850;51.984;5.088;2022-08-25T01:54:26;6.25;;;5.65;;
69627;SDS011;56850;51.984;5.088;2022-08-25T01:56:52;6.40;;;5.20;;
69627;SDS011;56850;51.984;5.088;2022-08-25T01:59:19;8.23;;;5.90;;
69627;SDS011;56850;51.984;5.088;2022-08-25T02:01:49;8.48;;;5.07;;
69627;SDS011;56850;51.984;5.088;2022-08-25T02:04:25;8.10;;;5.70;;
69627;SDS011;56850;51.984;5.088;2022-08-25T02:06:54;10.80;;;5.93;;
69627;SDS011;56850;51.984;5.088;2022-08-25T02:09:21;6.50;;;5.65;;
69627;SDS011;56850;51.984;5.088;2022-08-25T02:11:48;6.72;;;6.03;;
69627;SDS011;56850;51.984;5.088;2022-08-25T02:14:16;6.30;;;5.45;;
69627;SDS011;56850;51.984;5.088;2022-08-25T02:16:45;7.22;;;5.72;;
69627;SDS011;56850;51.984;5.088;2022-08-25T02:19:14;6.78;;;5.90;;
69627;SDS011;56850;51.984;5.088;2022-08-25T02:21:41;7.75;;;6.22;;
69627;SDS011;56850;51.984;5.088;2022-08-25T02:24:08;9.93;;;6.07;;
69627;SDS011;56850;51.984;5.088;2022-08-25T02:26:37;8.85;;;5.80;;
69627;SDS011;56850;51.984;5.088;2022-08-25T02:29:04;7.72;;;5.82;;
69627;SDS011;56850;51.984;5.088;2022-08-25T02:31:33;7.53;;;5.93;;
69627;SDS011;56850;51.984;5.088;2022-08-25T02:34:01;8.02;;;6.18;;
69627;SDS011;56850;51.984;5.088;2022-08-25T02:36:29;6.70;;;5.43;;
69627;SDS011;56850;51.984;5.088;2022-08-25T02:38:57;7.70;;;5.07;;
69627;SDS011;56850;51.984;5.088;2022-08-25T02:41:24;8.80;;;6.50;;
69627;SDS011;56850;51.984;5.088;2022-08-25T02:43:56;8.45;;;6.47;;
69627;SDS011;56850;51.984;5.088;2022-08-25T02:46:25;6.45;;;5.85;;
69627;SDS011;56850;51.984;5.088;2022-08-25T02:48:53;8.25;;;6.35;;
69627;SDS011;56850;51.984;5.088;2022-08-25T02:51:21;8.35;;;6.05;;
69627;SDS011;56850;51.984;5.088;2022-08-25T02:53:50;7.05;;;6.30;;
69627;SDS011;56850;51.984;5.088;2022-08-25T02:56:17;9.32;;;6.30;;
69627;SDS011;56850;51.984;5.088;2022-08-25T02:58:45;6.70;;;5.95;;
69627;SDS011;56850;51.984;5.088;2022-08-25T03:01:13;10.02;;;6.38;;
69627;SDS011;56850;51.984;5.088;2022-08-25T03:03:41;7.72;;;6.10;;
69627;SDS011;56850;51.984;5.088;2022-08-25T03:06:10;9.60;;;5.80;;
69627;SDS011;56850;51.984;5.088;2022-08-25T03:08:39;7.45;;;5.90;;
69627;SDS011;56850;51.984;5.088;2022-08-25T03:11:07;8.98;;;5.88;;
69627;SDS011;56850;51.984;5.088;2022-08-25T03:13:35;8.85;;;6.68;;
69627;SDS011;56850;51.984;5.088;2022-08-25T03:16:03;6.82;;;6.13;;
69627;SDS011;56850;51.984;5.088;2022-08-25T03:18:37;8.35;;;6.25;;
69627;SDS011;56850;51.984;5.088;2022-08-25T03:21:07;6.70;;;6.10;;
69627;SDS011;56850;51.984;5.088;2022-08-25T03:23:36;11.00;;;6.30;;
69627;SDS011;56850;51.984;5.088;2022-08-25T03:26:04;9.90;;;6.88;;
69627;SDS011;56850;51.984;5.088;2022-08-25T03:28:49;10.07;;;6.90;;
69627;SDS011;56850;51.984;5.088;2022-08-25T03:31:16;8.88;;;6.18;;
69627;SDS011;56850;51.984;5.088;2022-08-25T03:33:44;8.45;;;6.30;;
69627;SDS011;56850;51.984;5.088;2022-08-25T03:36:11;8.25;;;6.30;;
69627;SDS011;56850;51.984;5.088;2022-08-25T03:38:38;6.60;;;5.85;;
69627;SDS011;56850;51.984;5.088;2022-08-25T03:41:13;9.65;;;6.53;;
69627;SDS011;56850;51.984;5.088;2022-08-25T03:43:41;8.80;;;6.85;;
69627;SDS011;56850;51.984;5.088;2022-08-25T03:46:14;8.10;;;6.63;;
69627;SDS011;56850;51.984;5.088;2022-08-25T03:48:45;9.50;;;5.63;;
69627;SDS011;56850;51.984;5.088;2022-08-25T03:53:51;7.32;;;5.85;;
69627;SDS011;56850;51.984;5.088;2022-08-25T03:56:17;9.43;;;6.03;;
69627;SDS011;56850;51.984;5.088;2022-08-25T03:58:44;11.40;;;6.28;;
69627;SDS011;56850;51.984;5.088;2022-08-25T04:01:13;17.08;;;6.63;;
69627;SDS011;56850;51.984;5.088;2022-08-25T04:03:43;10.32;;;6.60;;
69627;SDS011;56850;51.984;5.088;2022-08-25T04:06:11;8.38;;;6.22;;
69627;SDS011;56850;51.984;5.088;2022-08-25T04:08:38;9.70;;;5.53;;
69627;SDS011;56850;51.984;5.088;2022-08-25T04:11:09;8.13;;;5.72;;
69627;SDS011;56850;51.984;5.088;2022-08-25T04:13:43;10.02;;;5.70;;
69627;SDS011;56850;51.984;5.088;2022-08-25T04:16:12;10.00;;;6.40;;
69627;SDS011;56850;51.984;5.088;2022-08-25T04:18:44;9.25;;;6.03;;
69627;SDS011;56850;51.984;5.088;2022-08-25T04:21:13;11.68;;;6.40;;
69627;SDS011;56850;51.984;5.088;2022-08-25T04:23:41;8.13;;;5.65;;
69627;SDS011;56850;51.984;5.088;2022-08-25T04:26:11;8.45;;;6.10;;
69627;SDS011;56850;51.984;5.088;2022-08-25T04:28:44;10.57;;;5.88;;
69627;SDS011;56850;51.984;5.088;2022-08-25T04:31:12;13.05;;;5.82;;
69627;SDS011;56850;51.984;5.088;2022-08-25T04:33:41;11.55;;;6.03;;
69627;SDS011;56850;51.984;5.088;2022-08-25T04:36:09;9.13;;;6.32;;
69627;SDS011;56850;51.984;5.088;2022-08-25T04:38:38;10.60;;;6.50;;
69627;SDS011;56850;51.984;5.088;2022-08-25T04:41:07;8.35;;;5.95;;
69627;SDS011;56850;51.984;5.088;2022-08-25T04:43:36;9.25;;;5.93;;
69627;SDS011;56850;51.984;5.088;2022-08-25T04:46:09;9.38;;;6.05;;
69627;SDS011;56850;51.984;5.088;2022-08-25T04:48:45;11.40;;;6.38;;
69627;SDS011;56850;51.984;5.088;2022-08-25T04:51:14;8.98;;;6.43;;
69627;SDS011;56850;51.984;5.088;2022-08-25T04:53:42;12.23;;;6.00;;
69627;SDS011;56850;51.984;5.088;2022-08-25T04:56:14;10.63;;;5.75;;
69627;SDS011;56850;51.984;5.088;2022-08-25T04:58:42;10.55;;;6.18;;
69627;SDS011;56850;51.984;5.088;2022-08-25T05:01:12;10.60;;;6.20;;
69627;SDS011;56850;51.984;5.088;2022-08-25T05:03:43;15.60;;;6.65;;
69627;SDS011;56850;51.984;5.088;2022-08-25T05:06:11;14.35;;;6.47;;
69627;SDS011;56850;51.984;5.088;2022-08-25T05:08:41;13.68;;;6.47;;
69627;SDS011;56850;51.984;5.088;2022-08-25T05:11:12;9.77;;;5.82;;
69627;SDS011;56850;51.984;5.088;2022-08-25T05:13:41;14.35;;;6.03;;
69627;SDS011;56850;51.984;5.088;2022-08-25T05:16:16;7.82;;;5.10;;
69627;SDS011;56850;51.984;5.088;2022-08-25T05:18:44;7.80;;;5.57;;
69627;SDS011;56850;51.984;5.088;2022-08-25T05:21:12;9.65;;;5.68;;
69627;SDS011;56850;51.984;5.088;2022-08-25T05:23:41;10.48;;;5.82;;
69627;SDS011;56850;51.984;5.088;2022-08-25T05:26:10;8.00;;;5.70;;
69627;SDS011;56850;51.984;5.088;2022-08-25T05:28:46;9.00;;;5.45;;
69627;SDS011;56850;51.984;5.088;2022-08-25T05:31:15;12.93;;;5.57;;
69627;SDS011;56850;51.984;5.088;2022-08-25T05:33:43;12.80;;;6.00;;
69627;SDS011;56850;51.984;5.088;2022-08-25T05:36:11;8.50;;;5.85;;
69627;SDS011;56850;51.984;5.088;2022-08-25T05:38:39;10.32;;;5.75;;
69627;SDS011;56850;51.984;5.088;2022-08-25T05:41:08;10.32;;;5.88;;
69627;SDS011;56850;51.984;5.088;2022-08-25T05:43:42;11.20;;;6.18;;
69627;SDS011;56850;51.984;5.088;2022-08-25T05:46:10;10.32;;;5.55;;
69627;SDS011;56850;51.984;5.088;2022-08-25T05:48:38;13.25;;;6.15;;
69627;SDS011;56850;51.984;5.088;2022-08-25T05:51:06;13.00;;;6.07;;
69627;SDS011;56850;51.984;5.088;2022-08-25T05:53:36;7.53;;;5.43;;
69627;SDS011;56850;51.984;5.088;2022-08-25T05:56:04;14.73;;;6.10;;
69627;SDS011;56850;51.984;5.088;2022-08-25T05:58:32;9.02;;;5.43;;
69627;SDS011;56850;51.984;5.088;2022-08-25T06:00:59;16.35;;;6.43;;
69627;SDS011;56850;51.984;5.088;2022-08-25T06:03:45;17.35;;;5.68;;
69627;SDS011;56850;51.984;5.088;2022-08-25T06:06:13;12.43;;;6.28;;
69627;SDS011;56850;51.984;5.088;2022-08-25T06:08:42;11.27;;;5.85;;
69627;SDS011;56850;51.984;5.088;2022-08-25T06:11:10;13.45;;;6.55;;
69627;SDS011;56850;51.984;5.088;2022-08-25T06:13:38;14.23;;;6.45;;
69627;SDS011;56850;51.984;5.088;2022-08-25T06:16:05;12.48;;;6.25;;
69627;SDS011;56850;51.984;5.088;2022-08-25T06:18:33;10.23;;;6.10;;
69627;SDS011;56850;51.984;5.088;2022-08-25T06:21:06;8.77;;;6.10;;
69627;SDS011;56850;51.984;5.088;2022-08-25T06:23:38;8.48;;;5.30;;
69627;SDS011;56850;51.984;5.088;2022-08-25T06:26:06;6.18;;;5.22;;
69627;SDS011;56850;51.984;5.088;2022-08-25T06:28:38;9.18;;;6.03;;
69627;SDS011;56850;51.984;5.088;2022-08-25T06:31:05;13.88;;;5.75;;
69627;SDS011;56850;51.984;5.088;2022-08-25T06:33:32;9.48;;;5.40;;
69627;SDS011;56850;51.984;5.088;2022-08-25T06:35:59;13.80;;;5.70;;
69627;SDS011;56850;51.984;5.088;2022-08-25T06:38:26;11.15;;;5.60;;
69627;SDS011;56850;51.984;5.088;2022-08-25T06:40:54;9.55;;;5.65;;
69627;SDS011;56850;51.984;5.088;2022-08-25T06:43:22;14.35;;;5.60;;
69627;SDS011;56850;51.984;5.088;2022-08-25T06:45:49;9.02;;;5.47;;
69627;SDS011;56850;51.984;5.088;2022-08-25T06:48:16;10.85;;;5.20;;
69627;SDS011;56850;51.984;5.088;2022-08-25T06:50:43;10.10;;;5.20;;
69627;SDS011;56850;51.984;5.088;2022-08-25T06:53:11;10.02;;;5.22;;
69627;SDS011;56850;51.984;5.088;2022-08-25T06:55:38;7.47;;;5.05;;
69627;SDS011;56850;51.984;5.088;2022-08-25T06:58:06;9.07;;;5.38;;
69627;SDS011;56850;51.984;5.088;2022-08-25T07:00:36;7.50;;;4.82;;
69627;SDS011;56850;51.984;5.088;2022-08-25T07:03:03;10.55;;;5.38;;
69627;SDS011;56850;51.984;5.088;2022-08-25T07:05:32;10.00;;;4.85;;
69627;SDS011;56850;51.984;5.088;2022-08-25T07:08:09;12.25;;;4.93;;
69627;SDS011;56850;51.984;5.088;2022-08-25T07:10:37;11.93;;;4.60;;
69627;SDS011;56850;51.984;5.088;2022-08-25T07:13:04;7.57;;;4.60;;
69627;SDS011;56850;51.984;5.088;2022-08-25T07:15:31;11.48;;;5.10;;
69627;SDS011;56850;51.984;5.088;2022-08-25T07:18:02;7.05;;;5.00;;
69627;SDS011;56850;51.984;5.088;2022-08-25T07:20:32;7.07;;;4.57;;
69627;SDS011;56850;51.984;5.088;2022-08-25T07:23:00;15.27;;;4.57;;
69627;SDS011;56850;51.984;5.088;2022-08-25T07:25:27;15.13;;;4.60;;
69627;SDS011;56850;51.984;5.088;2022-08-25T07:27:55;10.68;;;4.85;;
69627;SDS011;56850;51.984;5.088;2022-08-25T07:30:24;5.68;;;4.40;;
69627;SDS011;56850;51.984;5.088;2022-08-25T07:32:51;7.90;;;4.20;;
69627;SDS011;56850;51.984;5.088;2022-08-25T07:35:31;7.25;;;4.45;;
69627;SDS011;56850;51.984;5.088;2022-08-25T07:38:03;11.75;;;3.92;;
69627;SDS011;56850;51.984;5.088;2022-08-25T07:40:35;5.75;;;4.18;;
69627;SDS011;56850;51.984;5.088;2022-08-25T07:43:08;6.40;;;4.10;;
69627;SDS011;56850;51.984;5.088;2022-08-25T07:45:36;10.30;;;3.80;;
69627;SDS011;56850;51.984;5.088;2022-08-25T07:48:15;7.85;;;4.47;;
69627;SDS011;56850;51.984;5.088;2022-08-25T07:50:44;7.15;;;3.65;;
69627;SDS011;56850;51.984;5.088;2022-08-25T07:53:12;7.93;;;3.58;;
69627;SDS011;56850;51.984;5.088;2022-08-25T07:55:40;10.82;;;3.92;;
69627;SDS011;56850;51.984;5.088;2022-08-25T07:58:10;8.23;;;3.22;;
69627;SDS011;56850;51.984;5.088;2022-08-25T08:00:37;9.63;;;4.10;;
69627;SDS011;56850;51.984;5.088;2022-08-25T08:03:08;7.72;;;3.75;;
69627;SDS011;56850;51.984;5.088;2022-08-25T08:05:55;8.52;;;3.72;;
69627;SDS011;56850;51.984;5.088;2022-08-25T08:08:22;6.10;;;3.50;;
69627;SDS011;56850;51.984;5.088;2022-08-25T08:10:49;8.43;;;3.95;;
69627;SDS011;56850;51.984;5.088;2022-08-25T08:13:34;11.77;;;3.70;;
69627;SDS011;56850;51.984;5.088;2022-08-25T08:16:10;7.35;;;3.50;;
69627;SDS011;56850;51.984;5.088;2022-08-25T08:18:38;7.88;;;3.53;;
69627;SDS011;56850;51.984;5.088;2022-08-25T08:21:10;10.82;;;3.53;;
69627;SDS011;56850;51.984;5.088;2022-08-25T08:23:45;5.25;;;3.55;;
69627;SDS011;56850;51.984;5.088;2022-08-25T08:26:14;12.07;;;4.18;;
69627;SDS011;56850;51.984;5.088;2022-08-25T08:28:42;6.35;;;3.67;;
69627;SDS011;56850;51.984;5.088;2022-08-25T08:31:18;9.63;;;3.58;;
69627;SDS011;56850;51.984;5.088;2022-08-25T08:33:46;9.88;;;4.03;;
69627;SDS011;56850;51.984;5.088;2022-08-25T08:36:15;14.45;;;3.80;;
69627;SDS011;56850;51.984;5.088;2022-08-25T08:38:44;6.38;;;3.50;;
69627;SDS011;56850;51.984;5.088;2022-08-25T08:41:28;7.97;;;3.80;;
69627;SDS011;56850;51.984;5.088;2022-08-25T08:56:43;7.20;;;3.42;;
69627;SDS011;56850;51.984;5.088;2022-08-25T09:01:50;12.32;;;3.60;;
69627;SDS011;56850;51.984;5.088;2022-08-25T09:04:32;8.50;;;3.67;;
69627;SDS011;56850;51.984;5.088;2022-08-25T09:07:21;9.75;;;3.70;;
69627;SDS011;56850;51.984;5.088;2022-08-25T09:09:53;5.95;;;3.40;;
69627;SDS011;56850;51.984;5.088;2022-08-25T09:20:38;9.07;;;3.67;;
69627;SDS011;56850;51.984;5.088;2022-08-25T09:28:48;9.88;;;3.35;;
69627;SDS011;56850;51.984;5.088;2022-08-25T09:31:21;7.10;;;3.43;;
69627;SDS011;56850;51.984;5.088;2022-08-25T09:33:55;8.85;;;3.20;;
69627;SDS011;56850;51.984;5.088;2022-08-25T09:36:25;6.80;;;3.63;;
69627;SDS011;56850;51.984;5.088;2022-08-25T09:38:52;10.05;;;3.40;;
69627;SDS011;56850;51.984;5.088;2022-08-25T09:44:20;11.03;;;3.47;;
69627;SDS011;56850;51.984;5.088;2022-08-25T09:47:36;8.40;;;3.50;;
69627;SDS011;56850;51.984;5.088;2022-08-25T09:49:48;7.03;;;3.45;;
69627;SDS011;56850;51.984;5.088;2022-08-25T09:54:54;9.27;;;3.28;;
69627;SDS011;56850;51.984;5.088;2022-08-25T09:57:27;5.30;;;3.47;;
69627;SDS011;56850;51.984;5.088;2022-08-25T10:00:07;5.63;;;3.00;;
69627;SDS011;56850;51.984;5.088;2022-08-25T10:02:37;8.38;;;2.85;;
69627;SDS011;56850;51.984;5.088;2022-08-25T10:05:18;6.85;;;3.20;;
69627;SDS011;56850;51.984;5.088;2022-08-25T10:07:51;7.63;;;3.17;;
69627;SDS011;56850;51.984;5.088;2022-08-25T10:10:24;4.00;;;2.80;;
69627;SDS011;56850;51.984;5.088;2022-08-25T10:12:59;7.85;;;3.03;;
69627;SDS011;56850;51.984;5.088;2022-08-25T10:15:32;5.57;;;3.13;;
69627;SDS011;56850;51.984;5.088;2022-08-25T10:21:14;10.85;;;3.40;;
69627;SDS011;56850;51.984;5.088;2022-08-25T10:23:46;5.37;;;2.80;;
69627;SDS011;56850;51.984;5.088;2022-08-25T10:32:25;6.90;;;2.72;;
69627;SDS011;56850;51.984;5.088;2022-08-25T10:35:12;6.05;;;2.70;;
69627;SDS011;56850;51.984;5.088;2022-08-25T10:38:05;5.87;;;2.90;;
69627;SDS011;56850;51.984;5.088;2022-08-25T10:40:58;9.13;;;2.80;;
69627;SDS011;56850;51.984;5.088;2022-08-25T10:46:38;7.80;;;2.70;;
69627;SDS011;56850;51.984;5.088;2022-08-25T10:49:26;17.63;;;3.30;;
69627;SDS011;56850;51.984;5.088;2022-08-25T10:52:34;10.93;;;2.90;;
69627;SDS011;56850;51.984;5.088;2022-08-25T10:58:22;8.55;;;2.63;;
69627;SDS011;56850;51.984;5.088;2022-08-25T11:03:37;7.32;;;2.67;;
69627;SDS011;56850;51.984;5.088;2022-08-25T11:06:38;5.97;;;2.77;;
69627;SDS011;56850;51.984;5.088;2022-08-25T11:09:21;5.75;;;2.60;;
69627;SDS011;56850;51.984;5.088;2022-08-25T11:14:30;6.25;;;2.92;;
69627;SDS011;56850;51.984;5.088;2022-08-25T11:20:16;5.37;;;2.50;;
69627;SDS011;56850;51.984;5.088;2022-08-25T11:22:56;6.50;;;2.40;;
69627;SDS011;56850;51.984;5.088;2022-08-25T11:25:42;5.53;;;2.40;;
69627;SDS011;56850;51.984;5.088;2022-08-25T11:28:15;3.30;;;2.22;;
69627;SDS011;56850;51.984;5.088;2022-08-25T11:30:52;6.90;;;2.40;;
69627;SDS011;56850;51.984;5.088;2022-08-25T11:33:24;6.33;;;2.30;;
69627;SDS011;56850;51.984;5.088;2022-08-25T11:36:02;6.03;;;2.60;;
69627;SDS011;56850;51.984;5.088;2022-08-25T11:44:43;7.20;;;2.58;;
69627;SDS011;56850;51.984;5.088;2022-08-25T11:50:27;5.30;;;2.25;;
69627;SDS011;56850;51.984;5.088;2022-08-25T11:55:55;6.43;;;2.10;;
69627;SDS011;56850;51.984;5.088;2022-08-25T12:00:57;4.87;;;2.20;;
69627;SDS011;56850;51.984;5.088;2022-08-25T12:19:25;4.18;;;2.25;;
69627;SDS011;56850;51.984;5.088;2022-08-25T12:30:18;6.28;;;2.53;;
69627;SDS011;56850;51.984;5.088;2022-08-25T12:35:26;7.30;;;2.22;;
69627;SDS011;56850;51.984;5.088;2022-08-25T12:38:01;4.57;;;2.40;;
69627;SDS011;56850;51.984;5.088;2022-08-25T12:43:27;8.85;;;2.70;;
69627;SDS011;56850;51.984;5.088;2022-08-25T12:48:56;6.75;;;2.50;;
69627;SDS011;56850;51.984;5.088;2022-08-25T12:56:55;5.43;;;2.38;;
69627;SDS011;56850;51.984;5.088;2022-08-25T12:59:37;5.53;;;2.10;;
69627;SDS011;56850;51.984;5.088;2022-08-25T13:10:50;4.85;;;2.33;;
69627;SDS011;56850;51.984;5.088;2022-08-25T13:18:45;5.95;;;2.38;;
69627;SDS011;56850;51.984;5.088;2022-08-25T13:21:18;7.70;;;2.37;;
69627;SDS011;56850;51.984;5.088;2022-08-25T13:23:46;7.25;;;2.45;;
69627;SDS011;56850;51.984;5.088;2022-08-25T13:26:26;8.73;;;2.80;;
69627;SDS011;56850;51.984;5.088;2022-08-25T13:28:57;5.35;;;2.47;;
69627;SDS011;56850;51.984;5.088;2022-08-25T13:31:39;9.85;;;2.42;;
69627;SDS011;56850;51.984;5.088;2022-08-25T13:34:19;9.87;;;2.47;;
69627;SDS011;56850;51.984;5.088;2022-08-25T13:37:07;6.88;;;2.47;;
69627;SDS011;56850;51.984;5.088;2022-08-25T13:42:45;6.55;;;2.60;;
69627;SDS011;56850;51.984;5.088;2022-08-25T13:45:25;3.80;;;2.53;;
69627;SDS011;56850;51.984;5.088;2022-08-25T13:47:57;6.73;;;2.33;;
69627;SDS011;56850;51.984;5.088;2022-08-25T13:53:35;4.70;;;2.42;;
69627;SDS011;56850;51.984;5.088;2022-08-25T13:55:51;8.57;;;2.45;;
69627;SDS011;56850;51.984;5.088;2022-08-25T14:04:29;7.30;;;2.72;;
69627;SDS011;56850;51.984;5.088;2022-08-25T14:17:40;3.45;;;2.17;;
69627;SDS011;56850;51.984;5.088;2022-08-25T14:20:23;5.38;;;2.30;;
69627;SDS011;56850;51.984;5.088;2022-08-25T14:22:55;4.75;;;2.42;;
69627;SDS011;56850;51.984;5.088;2022-08-25T14:25:25;7.65;;;2.30;;
69627;SDS011;56850;51.984;5.088;2022-08-25T14:27:59;9.33;;;2.73;;
69627;SDS011;56850;51.984;5.088;2022-08-25T14:30:33;8.63;;;2.78;;
69627;SDS011;56850;51.984;5.088;2022-08-25T14:33:04;4.63;;;2.60;;
69627;SDS011;56850;51.984;5.088;2022-08-25T14:35:32;4.57;;;2.30;;
69627;SDS011;56850;51.984;5.088;2022-08-25T14:38:02;11.18;;;2.80;;
69627;SDS011;56850;51.984;5.088;2022-08-25T14:40:33;4.87;;;2.60;;
69627;SDS011;56850;51.984;5.088;2022-08-25T14:43:00;6.57;;;2.58;;
69627;SDS011;56850;51.984;5.088;2022-08-25T14:45:28;6.10;;;2.40;;
69627;SDS011;56850;51.984;5.088;2022-08-25T14:47:57;5.88;;;2.50;;
69627;SDS011;56850;51.984;5.088;2022-08-25T14:50:35;9.55;;;2.58;;
69627;SDS011;56850;51.984;5.088;2022-08-25T14:53:06;2.97;;;2.30;;
69627;SDS011;56850;51.984;5.088;2022-08-25T14:55:34;4.13;;;2.25;;
69627;SDS011;56850;51.984;5.088;2022-08-25T14:58:01;4.90;;;2.53;;
69627;SDS011;56850;51.984;5.088;2022-08-25T15:00:33;4.57;;;2.42;;
69627;SDS011;56850;51.984;5.088;2022-08-25T15:03:06;10.57;;;2.50;;
69627;SDS011;56850;51.984;5.088;2022-08-25T15:05:33;3.53;;;2.43;;
69627;SDS011;56850;51.984;5.088;2022-08-25T15:08:00;6.63;;;2.42;;
69627;SDS011;56850;51.984;5.088;2022-08-25T15:10:46;2.85;;;2.30;;
69627;SDS011;56850;51.984;5.088;2022-08-25T15:13:12;4.28;;;2.30;;
69627;SDS011;56850;51.984;5.088;2022-08-25T15:15:41;6.63;;;2.50;;
69627;SDS011;56850;51.984;5.088;2022-08-25T15:18:18;4.20;;;2.77;;
69627;SDS011;56850;51.984;5.088;2022-08-25T15:20:47;8.65;;;2.20;;
69627;SDS011;56850;51.984;5.088;2022-08-25T15:23:16;5.53;;;2.40;;
69627;SDS011;56850;51.984;5.088;2022-08-25T15:25:44;5.57;;;2.55;;
69627;SDS011;56850;51.984;5.088;2022-08-25T15:28:13;4.28;;;2.28;;
69627;SDS011;56850;51.984;5.088;2022-08-25T15:30:43;3.23;;;2.03;;
69627;SDS011;56850;51.984;5.088;2022-08-25T15:33:11;7.25;;;2.50;;
69627;SDS011;56850;51.984;5.088;2022-08-25T15:35:39;6.93;;;2.38;;
69627;SDS011;56850;51.984;5.088;2022-08-25T15:38:09;6.43;;;2.20;;
69627;SDS011;56850;51.984;5.088;2022-08-25T15:40:37;4.50;;;2.08;;
69627;SDS011;56850;51.984;5.088;2022-08-25T15:43:05;8.57;;;2.40;;
69627;SDS011;56850;51.984;5.088;2022-08-25T15:45:32;5.53;;;2.72;;
69627;SDS011;56850;51.984;5.088;2022-08-25T15:48:02;6.40;;;2.25;;
69627;SDS011;56850;51.984;5.088;2022-08-25T15:50:35;3.55;;;2.13;;
69627;SDS011;56850;51.984;5.088;2022-08-25T15:53:04;7.80;;;2.60;;
69627;SDS011;56850;51.984;5.088;2022-08-25T15:55:36;6.93;;;2.60;;
69627;SDS011;56850;51.984;5.088;2022-08-25T15:58:04;4.72;;;2.33;;
69627;SDS011;56850;51.984;5.088;2022-08-25T16:00:34;5.25;;;2.28;;
69627;SDS011;56850;51.984;5.088;2022-08-25T16:03:03;5.40;;;2.33;;
69627;SDS011;56850;51.984;5.088;2022-08-25T16:05:36;3.92;;;2.28;;
69627;SDS011;56850;51.984;5.088;2022-08-25T16:08:10;7.17;;;2.70;;
69627;SDS011;56850;51.984;5.088;2022-08-25T16:10:45;6.10;;;3.05;;
69627;SDS011;56850;51.984;5.088;2022-08-25T16:13:12;6.25;;;2.75;;
69627;SDS011;56850;51.984;5.088;2022-08-25T16:15:39;6.10;;;3.10;;
69627;SDS011;56850;51.984;5.088;2022-08-25T16:18:06;5.45;;;3.13;;
69627;SDS011;56850;51.984;5.088;2022-08-25T16:20:33;5.53;;;2.83;;
69627;SDS011;56850;51.984;5.088;2022-08-25T16:23:05;9.88;;;3.17;;
69627;SDS011;56850;51.984;5.088;2022-08-25T16:25:33;6.20;;;3.38;;
69627;SDS011;56850;51.984;5.088;2022-08-25T16:28:12;8.18;;;3.80;;
69627;SDS011;56850;51.984;5.088;2022-08-25T16:30:43;9.75;;;3.75;;
69627;SDS011;56850;51.984;5.088;2022-08-25T16:33:18;5.87;;;4.30;;
69627;SDS011;56850;51.984;5.088;2022-08-25T16:35:45;9.85;;;5.10;;
69627;SDS011;56850;51.984;5.088;2022-08-25T16:38:14;11.52;;;6.80;;
69627;SDS011;56850;51.984;5.088;2022-08-25T16:40:42;13.77;;;7.82;;
69627;SDS011;56850;51.984;5.088;2022-08-25T16:43:11;11.93;;;7.88;;
69627;SDS011;56850;51.984;5.088;2022-08-25T16:45:38;8.90;;;7.57;;
69627;SDS011;56850;51.984;5.088;2022-08-25T16:48:05;21.90;;;11.85;;
69627;SDS011;56850;51.984;5.088;2022-08-25T16:50:32;17.63;;;12.52;;
69627;SDS011;56850;51.984;5.088;2022-08-25T16:52:59;18.38;;;14.00;;
69627;SDS011;56850;51.984;5.088;2022-08-25T16:55:58;16.42;;;13.63;;
69627;SDS011;56850;51.984;5.088;2022-08-25T16:58:26;18.30;;;14.70;;
69627;SDS011;56850;51.984;5.088;2022-08-25T17:00:55;17.52;;;15.18;;
69627;SDS011;56850;51.984;5.088;2022-08-25T17:03:39;20.77;;;17.75;;
69627;SDS011;56850;51.984;5.088;2022-08-25T17:06:09;20.75;;;17.00;;
69627;SDS011;56850;51.984;5.088;2022-08-25T17:08:36;19.77;;;16.17;;
69627;SDS011;56850;51.984;5.088;2022-08-25T17:11:08;19.83;;;17.70;;
69627;SDS011;56850;51.984;5.088;2022-08-25T17:13:38;19.85;;;16.20;;
69627;SDS011;56850;51.984;5.088;2022-08-25T17:16:10;21.08;;;15.02;;
69627;SDS011;56850;51.984;5.088;2022-08-25T17:18:40;21.48;;;15.35;;
69627;SDS011;56850;51.984;5.088;2022-08-25T17:21:12;20.40;;;18.20;;
69627;SDS011;56850;51.984;5.088;2022-08-25T17:23:49;23.93;;;21.37;;
69627;SDS011;56850;51.984;5.088;2022-08-25T17:26:16;23.55;;;21.10;;
69627;SDS011;56850;51.984;5.088;2022-08-25T17:28:53;24.63;;;20.40;;
